createdAt,value
2023-01-01T00:00:49.057Z,25.80
2023-01-01T00:03:16.519Z,27.40
2023-01-01T00:05:45.442Z,27.10
2023-01-01T00:08:13.860Z,32.40
2023-01-01T00:10:41.032Z,34.00
2023-01-01T00:13:08.232Z,34.90
2023-01-01T00:15:35.252Z,36.00
2023-01-01T00:18:02.247Z,40.50
2023-01-01T00:20:35.226Z,43.30
2023-01-01T00:23:02.873Z,44.50
2023-01-01T00:25:31.604Z,49.50
2023-01-01T00:27:59.912Z,50.10
2023-01-01T00:30:28.035Z,50.20
2023-01-01T00:32:56.327Z,48.90
2023-01-01T00:35:27.145Z,48.50
2023-01-01T00:37:55.475Z,45.30
2023-01-01T00:40:23.295Z,44.90
2023-01-01T00:42:50.455Z,41.90
2023-01-01T00:45:21.995Z,41.00
2023-01-01T00:47:50.787Z,43.60
2023-01-01T00:50:18.275Z,39.70
2023-01-01T00:52:45.232Z,40.10
2023-01-01T00:55:12.661Z,42.20
2023-01-01T00:57:39.697Z,39.70
2023-01-01T01:00:08.202Z,38.40
2023-01-01T01:02:35.418Z,38.50
2023-01-01T01:05:04.850Z,37.50
2023-01-01T01:07:38.676Z,37.30
2023-01-01T01:10:07.202Z,34.90
2023-01-01T01:12:36.129Z,35.70
2023-01-01T01:15:04.295Z,35.50
2023-01-01T01:17:31.450Z,34.30
2023-01-01T01:19:58.472Z,33.10
2023-01-01T01:22:28.743Z,32.50
2023-01-01T01:24:57.013Z,32.60
2023-01-01T01:27:24.775Z,34.20
2023-01-01T01:29:52.196Z,32.80
2023-01-01T01:32:19.345Z,32.70
2023-01-01T01:34:47.738Z,33.00
2023-01-01T01:37:15.132Z,33.00
2023-01-01T01:39:42.489Z,31.30
2023-01-01T01:42:19.086Z,30.80
2023-01-01T01:44:48.861Z,30.10
2023-01-01T01:47:39.767Z,31.50
2023-01-01T01:50:15.979Z,30.90
2023-01-01T01:53:16.006Z,30.70
2023-01-01T01:55:52.288Z,27.70
2023-01-01T01:58:19.633Z,30.30
2023-01-01T02:00:47.253Z,29.60
2023-01-01T02:03:20.294Z,27.50
2023-01-01T02:05:48.849Z,27.00
2023-01-01T02:08:16.706Z,27.70
2023-01-01T02:10:44.216Z,26.90
2023-01-01T02:13:11.732Z,27.40
2023-01-01T02:15:50.848Z,26.20
2023-01-01T02:18:25.348Z,24.00
2023-01-01T02:21:07.898Z,23.00
2023-01-01T02:24:00.835Z,23.00
2023-01-01T02:27:01.223Z,24.60
2023-01-01T02:29:55.319Z,23.30
2023-01-01T02:32:27.585Z,21.50
2023-01-01T02:35:22.001Z,21.60
2023-01-01T02:37:51.233Z,21.00
2023-01-01T02:40:21.580Z,21.40
2023-01-01T02:42:49.538Z,21.00
2023-01-01T02:45:16.752Z,22.40
2023-01-01T02:47:43.895Z,22.00
2023-01-01T02:50:25.538Z,22.80
2023-01-01T02:53:02.076Z,22.70
2023-01-01T02:55:44.736Z,22.60
2023-01-01T02:58:54.804Z,22.00
2023-01-01T03:01:34.557Z,21.40
2023-01-01T03:04:13.133Z,21.10
2023-01-01T03:06:43.813Z,22.10
2023-01-01T03:09:19.729Z,22.30
2023-01-01T03:12:06.947Z,22.60
2023-01-01T03:15:07.194Z,23.70
2023-01-01T03:17:39.209Z,24.00
2023-01-01T03:20:17.063Z,24.00
2023-01-01T03:25:17.790Z,23.90
2023-01-01T03:27:49.319Z,24.30
2023-01-01T03:30:19.935Z,23.80
2023-01-01T03:33:01.325Z,25.00
2023-01-01T03:36:03.147Z,24.70
2023-01-01T03:38:35.941Z,24.40
2023-01-01T03:41:10.305Z,26.00
2023-01-01T03:43:49.682Z,27.10
2023-01-01T03:46:24.260Z,25.50
2023-01-01T03:49:03.232Z,26.30
2023-01-01T03:51:52.994Z,26.60
2023-01-01T03:54:52.385Z,27.00
2023-01-01T03:57:32.784Z,26.90
2023-01-01T04:00:09.783Z,28.70
2023-01-01T04:02:56.735Z,28.60
2023-01-01T04:05:24.805Z,29.80
2023-01-01T04:07:53.503Z,31.70
2023-01-01T04:10:21.552Z,32.00
2023-01-01T04:12:56.682Z,33.00
2023-01-01T04:15:27.992Z,32.70
2023-01-01T04:17:55.203Z,31.90
2023-01-01T04:20:23.135Z,32.50
2023-01-01T04:22:50.636Z,34.90
2023-01-01T04:25:18.143Z,34.70
2023-01-01T04:27:45.112Z,35.30
2023-01-01T04:30:14.566Z,38.40
2023-01-01T04:32:42.135Z,39.10
2023-01-01T04:35:12.885Z,40.00
2023-01-01T04:37:42.092Z,41.10
2023-01-01T04:40:10.680Z,41.80
2023-01-01T04:42:37.858Z,43.10
2023-01-01T04:45:05.313Z,42.50
2023-01-01T04:47:32.643Z,43.50
2023-01-01T04:49:59.614Z,45.50
2023-01-01T04:52:27.294Z,49.20
2023-01-01T04:54:54.328Z,51.80
2023-01-01T04:57:21.348Z,54.20
2023-01-01T04:59:48.337Z,57.20
2023-01-01T05:02:15.480Z,58.30
2023-01-01T05:04:42.496Z,64.10
2023-01-01T05:07:09.476Z,70.70
2023-01-01T05:09:36.762Z,74.70
2023-01-01T05:12:03.858Z,76.90
2023-01-01T05:14:30.869Z,77.30
2023-01-01T05:16:57.811Z,76.60
2023-01-01T05:19:24.964Z,73.30
2023-01-01T05:21:52.037Z,67.70
2023-01-01T05:24:18.957Z,70.00
2023-01-01T05:26:46.399Z,72.70
2023-01-01T05:29:16.888Z,77.00
2023-01-01T05:31:45.478Z,84.70
2023-01-01T05:34:12.685Z,90.90
2023-01-01T05:36:39.700Z,93.70
2023-01-01T05:39:08.577Z,96.30
2023-01-01T05:41:36.723Z,97.50
2023-01-01T05:44:06.623Z,97.80
2023-01-01T05:46:33.758Z,96.00
2023-01-01T05:49:01.227Z,96.10
2023-01-01T05:51:29.908Z,96.70
2023-01-01T05:53:58.132Z,95.90
2023-01-01T05:56:26.961Z,95.70
2023-01-01T05:58:54.664Z,91.50
2023-01-01T06:01:24.799Z,88.70
2023-01-01T06:03:53.361Z,85.40
2023-01-01T06:06:23.030Z,85.90
2023-01-01T06:09:01.360Z,86.10
2023-01-01T06:11:29.163Z,85.90
2023-01-01T06:13:58.864Z,88.10
2023-01-01T06:16:27.048Z,89.20
2023-01-01T06:18:54.073Z,89.80
2023-01-01T06:21:23.701Z,89.10
2023-01-01T06:23:50.836Z,89.60
2023-01-01T06:26:26.613Z,89.40
2023-01-01T06:28:53.659Z,90.00
2023-01-01T06:31:22.098Z,87.80
2023-01-01T06:33:50.904Z,86.80
2023-01-01T06:36:20.493Z,87.70
2023-01-01T06:38:50.393Z,88.20
2023-01-01T06:41:22.880Z,90.20
2023-01-01T06:43:50.614Z,89.10
2023-01-01T06:46:24.516Z,89.90
2023-01-01T06:48:54.783Z,91.50
2023-01-01T06:51:24.000Z,92.50
2023-01-01T06:53:52.566Z,93.20
2023-01-01T06:56:23.075Z,93.00
2023-01-01T06:58:50.257Z,93.20
2023-01-01T07:01:19.636Z,94.40
2023-01-01T07:04:01.250Z,96.30
2023-01-01T07:06:30.213Z,96.30
2023-01-01T07:08:57.368Z,95.70
2023-01-01T07:11:25.408Z,96.70
2023-01-01T07:13:55.556Z,96.70
2023-01-01T07:16:23.513Z,97.00
2023-01-01T07:18:51.143Z,97.50
2023-01-01T07:21:29.647Z,96.90
2023-01-01T07:24:05.625Z,96.80
2023-01-01T07:26:35.108Z,97.10
2023-01-01T07:29:07.508Z,95.70
2023-01-01T07:31:37.274Z,95.10
2023-01-01T07:34:09.679Z,95.30
2023-01-01T07:36:36.599Z,95.70
2023-01-01T07:39:03.645Z,96.50
2023-01-01T07:41:30.734Z,96.40
2023-01-01T07:43:59.339Z,96.50
2023-01-01T07:46:29.106Z,96.80
2023-01-01T07:48:57.110Z,97.00
2023-01-01T07:51:24.203Z,97.40
2023-01-01T07:53:52.672Z,97.90
2023-01-01T07:56:24.834Z,98.80
2023-01-01T07:58:52.050Z,99.50
2023-01-01T08:01:20.833Z,99.90
2023-01-01T08:03:52.983Z,99.90
2023-01-01T08:06:20.334Z,99.90
2023-01-01T08:08:47.238Z,99.90
2023-01-01T08:11:14.450Z,99.90
2023-01-01T08:13:41.363Z,99.90
2023-01-01T08:16:08.413Z,99.90
2023-01-01T08:18:35.838Z,99.90
2023-01-01T08:21:03.911Z,99.90
2023-01-01T08:23:31.086Z,99.90
2023-01-01T08:26:05.201Z,99.90
2023-01-01T08:28:35.801Z,99.90
2023-01-01T08:31:02.806Z,99.90
2023-01-01T08:33:29.983Z,99.90
2023-01-01T08:35:57.054Z,99.90
2023-01-01T08:38:24.266Z,99.90
2023-01-01T08:40:54.142Z,99.90
2023-01-01T08:43:21.219Z,99.90
2023-01-01T08:45:52.939Z,99.90
2023-01-01T08:48:22.200Z,99.90
2023-01-01T08:51:01.774Z,99.90
2023-01-01T08:53:33.139Z,99.90
2023-01-01T08:56:08.665Z,99.90
2023-01-01T08:58:37.670Z,99.90
2023-01-01T09:01:06.503Z,99.90
2023-01-01T09:03:34.252Z,99.90
2023-01-01T09:06:12.891Z,99.90
2023-01-01T09:08:46.335Z,99.90
2023-01-01T09:11:25.267Z,99.90
2023-01-01T09:13:53.096Z,99.90
2023-01-01T09:16:21.202Z,99.90
2023-01-01T09:18:48.704Z,99.90
2023-01-01T09:21:15.846Z,99.90
2023-01-01T09:23:42.974Z,99.90
2023-01-01T09:26:10.885Z,99.90
2023-01-01T09:28:38.692Z,99.90
2023-01-01T09:31:08.598Z,99.90
2023-01-01T09:33:35.790Z,99.90
2023-01-01T09:36:32.876Z,99.90
2023-01-01T09:39:00.979Z,99.90
2023-01-01T09:42:03.369Z,99.90
2023-01-01T09:45:15.370Z,99.90
2023-01-01T09:47:46.428Z,99.90
2023-01-01T09:50:25.763Z,99.90
2023-01-01T09:52:59.536Z,99.90
2023-01-01T09:55:29.691Z,99.90
2023-01-01T09:57:57.541Z,99.90
2023-01-01T10:00:25.311Z,99.90
2023-01-01T10:03:01.476Z,99.90
2023-01-01T10:05:38.080Z,99.90
2023-01-01T10:08:23.140Z,99.90
2023-01-01T10:11:11.334Z,99.90
2023-01-01T10:13:46.067Z,99.90
2023-01-01T10:16:42.251Z,99.90
2023-01-01T10:19:31.824Z,99.90
2023-01-01T10:22:22.806Z,99.90
2023-01-01T10:24:55.116Z,99.90
2023-01-01T10:27:36.971Z,99.90
2023-01-01T10:30:17.851Z,99.90
2023-01-01T10:32:51.011Z,99.90
2023-01-01T10:35:35.380Z,99.90
2023-01-01T10:38:04.469Z,99.90
2023-01-01T10:40:32.412Z,99.90
2023-01-01T10:43:01.525Z,99.90
2023-01-01T10:45:35.341Z,99.90
2023-01-01T10:48:22.479Z,99.90
2023-01-01T10:50:55.639Z,99.90
2023-01-01T10:53:49.772Z,99.90
2023-01-01T10:56:19.669Z,99.90
2023-01-01T10:58:48.225Z,99.90
2023-01-01T11:01:17.927Z,99.90
2023-01-01T11:03:59.151Z,99.90
2023-01-01T11:06:33.531Z,99.90
2023-01-01T11:09:04.748Z,99.90
2023-01-01T11:11:46.411Z,99.90
2023-01-01T11:14:29.958Z,99.90
2023-01-01T11:16:58.443Z,99.90
2023-01-01T11:19:31.091Z,99.90
2023-01-01T11:21:59.231Z,99.90
2023-01-01T11:24:31.418Z,99.90
2023-01-01T11:27:26.245Z,99.90
2023-01-01T11:30:22.446Z,99.90
2023-01-01T11:32:55.696Z,99.90
2023-01-01T11:35:26.270Z,99.90
2023-01-01T11:37:55.134Z,99.90
2023-01-01T11:40:32.587Z,99.90
2023-01-01T11:43:04.090Z,99.90
2023-01-01T11:45:42.785Z,99.90
2023-01-01T11:48:32.983Z,99.90
2023-01-01T11:51:06.175Z,99.90
2023-01-01T11:53:37.134Z,99.90
2023-01-01T11:56:20.447Z,99.90
2023-01-01T11:59:04.095Z,99.90
2023-01-01T12:01:52.607Z,99.90
2023-01-01T12:04:45.844Z,99.90
2023-01-01T12:07:20.200Z,99.90
2023-01-01T12:10:06.484Z,99.90
2023-01-01T12:12:44.033Z,99.90
2023-01-01T12:15:23.843Z,99.90
2023-01-01T12:18:25.582Z,99.90
2023-01-01T12:21:15.077Z,99.90
2023-01-01T12:23:42.218Z,99.90
2023-01-01T12:26:38.693Z,99.90
2023-01-01T12:29:50.853Z,99.90
2023-01-01T12:32:34.903Z,99.90
2023-01-01T12:35:19.824Z,99.90
2023-01-01T12:38:11.219Z,99.90
2023-01-01T12:40:48.304Z,99.90
2023-01-01T12:43:35.594Z,99.90
2023-01-01T12:46:27.601Z,99.90
2023-01-01T12:49:23.630Z,99.90
2023-01-01T12:52:22.359Z,99.90
2023-01-01T12:55:25.166Z,99.90
2023-01-01T12:58:08.468Z,99.90
2023-01-01T13:00:38.779Z,99.90
2023-01-01T13:03:14.337Z,99.90
2023-01-01T13:05:45.582Z,99.90
2023-01-01T13:08:12.743Z,99.90
2023-01-01T13:10:43.368Z,99.90
2023-01-01T13:13:13.058Z,99.90
2023-01-01T13:15:44.139Z,99.90
2023-01-01T13:18:14.082Z,99.90
2023-01-01T13:21:07.105Z,99.90
2023-01-01T13:23:38.384Z,99.90
2023-01-01T13:26:20.999Z,99.90
2023-01-01T13:29:05.511Z,99.90
2023-01-01T13:31:38.805Z,99.90
2023-01-01T13:34:30.733Z,99.90
2023-01-01T13:37:17.297Z,99.90
2023-01-01T13:40:01.094Z,99.90
2023-01-01T13:43:02.362Z,99.90
2023-01-01T13:46:09.837Z,99.90
2023-01-01T13:48:48.277Z,99.90
2023-01-01T13:51:40.157Z,99.90
2023-01-01T13:54:34.275Z,99.90
2023-01-01T13:57:13.709Z,99.90
2023-01-01T14:00:10.132Z,99.90
2023-01-01T14:02:50.859Z,99.90
2023-01-01T14:05:44.107Z,99.90
2023-01-01T14:08:46.618Z,99.90
2023-01-01T14:11:24.920Z,99.90
2023-01-01T14:13:51.867Z,99.90
2023-01-01T14:16:19.003Z,99.90
2023-01-01T14:18:49.634Z,99.90
2023-01-01T14:21:20.449Z,99.90
2023-01-01T14:23:54.978Z,99.90
2023-01-01T14:26:25.643Z,99.90
2023-01-01T14:28:57.356Z,99.90
2023-01-01T14:31:31.425Z,99.90
2023-01-01T14:33:59.221Z,99.90
2023-01-01T14:36:29.224Z,99.90
2023-01-01T14:39:03.317Z,99.90
2023-01-01T14:41:39.088Z,99.90
2023-01-01T14:44:18.667Z,99.90
2023-01-01T14:46:52.256Z,99.90
2023-01-01T14:49:33.443Z,99.90
2023-01-01T14:52:21.414Z,99.90
2023-01-01T14:54:48.830Z,99.90
2023-01-01T14:57:20.276Z,99.90
2023-01-01T14:59:57.342Z,99.90
2023-01-01T15:02:28.397Z,99.90
2023-01-01T15:04:56.784Z,99.90
2023-01-01T15:07:25.359Z,99.90
2023-01-01T15:09:54.542Z,99.90
2023-01-01T15:12:22.929Z,99.90
2023-01-01T15:14:53.026Z,99.90
2023-01-01T15:17:25.333Z,99.90
2023-01-01T15:20:03.079Z,99.90
2023-01-01T15:22:35.571Z,99.90
2023-01-01T15:25:04.041Z,99.90
2023-01-01T15:27:36.217Z,99.90
2023-01-01T15:30:11.612Z,99.90
2023-01-01T15:32:41.598Z,99.90
2023-01-01T15:35:31.474Z,99.90
2023-01-01T15:38:19.698Z,99.90
2023-01-01T15:40:52.940Z,99.90
2023-01-01T15:43:25.682Z,99.90
2023-01-01T15:46:36.346Z,99.90
2023-01-01T15:49:03.596Z,99.90
2023-01-01T15:51:31.025Z,99.90
2023-01-01T15:53:59.365Z,99.90
2023-01-01T15:56:29.565Z,99.90
2023-01-01T15:59:09.726Z,99.90
2023-01-01T16:01:39.345Z,99.90
2023-01-01T16:04:28.264Z,99.90
2023-01-01T16:06:58.003Z,99.90
2023-01-01T16:09:25.470Z,99.90
2023-01-01T16:11:54.631Z,99.90
2023-01-01T16:14:22.236Z,99.90
2023-01-01T16:17:00.851Z,99.90
2023-01-01T16:19:30.909Z,99.90
2023-01-01T16:21:58.657Z,99.90
2023-01-01T16:24:25.716Z,99.90
2023-01-01T16:26:53.207Z,99.90
2023-01-01T16:29:20.241Z,99.90
2023-01-01T16:31:50.578Z,99.90
2023-01-01T16:34:17.836Z,99.90
2023-01-01T16:36:45.520Z,99.90
2023-01-01T16:39:12.640Z,99.90
2023-01-01T16:41:43.896Z,99.90
2023-01-01T16:44:16.838Z,99.90
2023-01-01T16:46:44.188Z,99.90
2023-01-01T16:49:11.509Z,99.90
2023-01-01T16:51:43.165Z,99.90
2023-01-01T16:54:10.697Z,99.90
2023-01-01T16:56:38.276Z,99.90
2023-01-01T16:59:05.300Z,99.90
2023-01-01T17:01:33.732Z,99.90
2023-01-01T17:04:00.965Z,99.90
2023-01-01T17:06:28.140Z,99.90
2023-01-01T17:08:55.220Z,99.90
2023-01-01T17:11:24.882Z,99.90
2023-01-01T17:13:52.013Z,99.90
2023-01-01T17:16:26.987Z,99.90
2023-01-01T17:19:17.037Z,99.90
2023-01-01T17:21:46.477Z,99.90
2023-01-01T17:24:15.404Z,99.90
2023-01-01T17:26:42.459Z,99.90
2023-01-01T17:29:09.505Z,99.90
2023-01-01T17:31:36.736Z,99.90
2023-01-01T17:34:04.339Z,99.90
2023-01-01T17:36:32.755Z,99.90
2023-01-01T17:38:59.819Z,99.90
2023-01-01T17:41:26.779Z,99.90
2023-01-01T17:43:53.832Z,99.90
2023-01-01T17:46:33.207Z,99.90
2023-01-01T17:49:01.847Z,99.90
2023-01-01T17:51:29.403Z,99.90
2023-01-01T17:53:56.964Z,99.90
2023-01-01T17:56:24.871Z,99.90
2023-01-01T17:58:53.865Z,99.90
2023-01-01T18:01:24.126Z,99.90
2023-01-01T18:03:53.385Z,99.90
2023-01-01T18:06:20.717Z,99.90
2023-01-01T18:08:47.848Z,99.90
2023-01-01T18:11:15.326Z,99.90
2023-01-01T18:13:42.572Z,99.90
2023-01-01T18:16:10.176Z,99.90
2023-01-01T18:18:40.693Z,99.90
2023-01-01T18:21:12.048Z,99.90
2023-01-01T18:23:40.069Z,99.90
2023-01-01T18:26:10.226Z,99.90
2023-01-01T18:28:38.063Z,99.90
2023-01-01T18:31:32.691Z,99.90
2023-01-01T18:34:01.613Z,99.90
2023-01-01T18:36:30.513Z,99.90
2023-01-01T18:39:01.849Z,99.90
2023-01-01T18:41:47.087Z,99.90
2023-01-01T18:44:23.094Z,99.90
2023-01-01T18:46:58.635Z,99.90
2023-01-01T18:49:26.057Z,99.90
2023-01-01T18:52:06.079Z,99.90
2023-01-01T18:54:33.829Z,99.90
2023-01-01T18:57:16.720Z,99.90
2023-01-01T18:59:43.807Z,99.90
2023-01-01T19:02:51.828Z,99.90
2023-01-01T19:05:27.623Z,99.90
2023-01-01T19:08:01.485Z,99.90
2023-01-01T19:10:50.688Z,99.90
2023-01-01T19:13:41.960Z,99.90
2023-01-01T19:16:12.311Z,99.90
2023-01-01T19:18:41.569Z,99.90
2023-01-01T19:21:11.692Z,99.90
2023-01-01T19:23:50.740Z,99.90
2023-01-01T19:26:32.808Z,99.90
2023-01-01T19:29:14.924Z,99.90
2023-01-01T19:31:42.064Z,99.90
2023-01-01T19:34:09.551Z,99.90
2023-01-01T19:36:38.696Z,99.90
2023-01-01T19:39:06.776Z,99.90
2023-01-01T19:41:34.103Z,99.90
2023-01-01T19:44:01.454Z,99.90
2023-01-01T19:46:28.548Z,99.90
2023-01-01T19:48:55.787Z,99.90
2023-01-01T19:51:22.878Z,99.90
2023-01-01T19:53:50.926Z,99.90
2023-01-01T19:56:18.582Z,99.90
2023-01-01T19:58:46.399Z,99.90
2023-01-01T20:01:14.801Z,99.90
2023-01-01T20:03:57.857Z,99.90
2023-01-01T20:06:25.912Z,99.90
2023-01-01T20:08:53.887Z,99.90
2023-01-01T20:11:21.400Z,99.90
2023-01-01T20:13:48.812Z,99.90
2023-01-01T20:16:15.871Z,99.90
2023-01-01T20:18:43.548Z,99.90
2023-01-01T20:21:29.347Z,99.90
2023-01-01T20:23:56.371Z,99.90
2023-01-01T20:26:25.716Z,99.90
2023-01-01T20:29:11.924Z,99.90
2023-01-01T20:31:39.297Z,99.90
2023-01-01T20:34:06.572Z,99.90
2023-01-01T20:36:54.424Z,99.90
2023-01-01T20:39:22.665Z,99.90
2023-01-01T20:41:50.363Z,99.90
2023-01-01T20:44:17.622Z,99.90
2023-01-01T20:46:46.212Z,99.90
2023-01-01T20:49:13.692Z,99.90
2023-01-01T20:51:40.713Z,99.90
2023-01-01T20:54:07.803Z,99.90
2023-01-01T20:56:34.997Z,99.90
2023-01-01T20:59:24.373Z,99.90
2023-01-01T21:01:50.029Z,99.90
2023-01-01T21:04:17.567Z,99.90
2023-01-01T21:06:44.818Z,99.90
2023-01-01T21:09:12.467Z,99.90
2023-01-01T21:11:39.647Z,99.90
2023-01-01T21:14:06.713Z,99.90
2023-01-01T21:16:36.779Z,99.90
2023-01-01T21:19:08.621Z,99.90
2023-01-01T21:22:01.196Z,99.90
2023-01-01T21:24:33.325Z,99.90
2023-01-01T21:27:09.347Z,99.90
2023-01-01T21:29:38.333Z,99.90
2023-01-01T21:32:26.941Z,99.90
2023-01-01T21:34:55.549Z,99.90
2023-01-01T21:37:47.744Z,99.90
2023-01-01T21:40:50.038Z,99.90
2023-01-01T21:43:29.439Z,99.90
2023-01-01T21:46:18.529Z,99.90
2023-01-01T21:49:06.350Z,99.90
2023-01-01T21:51:55.661Z,99.90
2023-01-01T21:54:34.720Z,99.90
2023-01-01T21:57:13.603Z,99.90
2023-01-01T21:59:43.677Z,99.90
2023-01-01T22:02:10.683Z,99.90
2023-01-01T22:04:45.111Z,99.90
2023-01-01T22:10:26.867Z,99.90
2023-01-01T22:12:59.025Z,99.90
2023-01-01T22:15:36.406Z,99.90
2023-01-01T22:18:12.316Z,99.90
2023-01-01T22:20:42.460Z,99.90
2023-01-01T22:23:24.593Z,99.90
2023-01-01T22:25:52.596Z,99.90
2023-01-01T22:28:23.811Z,99.90
2023-01-01T22:30:57.300Z,99.90
2023-01-01T22:33:39.576Z,99.90
2023-01-01T22:36:26.316Z,99.90
2023-01-01T22:38:57.007Z,99.90
2023-01-01T22:41:24.192Z,99.90
2023-01-01T22:43:56.157Z,99.90
2023-01-01T22:46:28.565Z,99.90
2023-01-01T22:48:59.843Z,99.90
2023-01-01T22:51:39.053Z,99.90
2023-01-01T22:54:06.249Z,99.90
2023-01-01T22:56:33.307Z,99.90
2023-01-01T22:59:00.584Z,99.90
2023-01-01T23:01:27.603Z,99.90
2023-01-01T23:03:54.783Z,99.90
2023-01-01T23:06:22.389Z,99.90
2023-01-01T23:08:50.967Z,99.90
2023-01-01T23:11:18.477Z,99.90
2023-01-01T23:14:08.853Z,99.90
2023-01-01T23:16:36.149Z,99.90
2023-01-01T23:19:04.814Z,99.90
2023-01-01T23:21:34.248Z,99.90
2023-01-01T23:24:05.271Z,99.90
2023-01-01T23:26:32.371Z,99.90
2023-01-01T23:28:59.366Z,99.90
2023-01-01T23:31:28.099Z,99.90
2023-01-01T23:33:57.428Z,99.90
2023-01-01T23:36:28.429Z,99.90
2023-01-01T23:38:55.448Z,99.90
2023-01-01T23:41:23.268Z,99.90
2023-01-01T23:43:50.408Z,99.90
2023-01-01T23:46:18.757Z,99.90
2023-01-01T23:48:47.183Z,99.90
2023-01-01T23:51:16.391Z,99.90
2023-01-01T23:53:43.365Z,99.90
2023-01-01T23:56:10.465Z,99.90
2023-01-01T23:58:37.546Z,99.90
